sensor_id;sensor_type;location;lat;lon;timestamp;temperature;humidity
23544;DHT22;11950;51.230;4.012;2023-04-23T00:01:31;11.00;99.90
23544;DHT22;11950;51.230;4.012;2023-04-23T00:04:01;11.00;99.90
23544;DHT22;11950;51.230;4.012;2023-04-23T00:06:29;10.90;99.90
23544;DHT22;11950;51.230;4.012;2023-04-23T00:08:56;11.00;99.90
23544;DHT22;11950;51.230;4.012;2023-04-23T00:11:25;10.90;99.90
23544;DHT22;11950;51.230;4.012;2023-04-23T00:13:51;10.90;99.90
23544;DHT22;11950;51.230;4.012;2023-04-23T00:16:19;10.90;99.90
23544;DHT22;11950;51.230;4.012;2023-04-23T00:18:46;10.80;99.90
23544;DHT22;11950;51.230;4.012;2023-04-23T00:21:12;10.80;99.90
23544;DHT22;11950;51.230;4.012;2023-04-23T00:23:40;10.80;99.90
23544;DHT22;11950;51.230;4.012;2023-04-23T00:26:06;10.70;99.90
23544;DHT22;11950;51.230;4.012;2023-04-23T00:28:33;10.70;99.90
23544;DHT22;11950;51.230;4.012;2023-04-23T00:30:59;10.70;99.90
23544;DHT22;11950;51.230;4.012;2023-04-23T00:33:25;10.60;99.90
23544;DHT22;11950;51.230;4.012;2023-04-23T00:35:51;10.60;99.90
23544;DHT22;11950;51.230;4.012;2023-04-23T00:38:18;10.60;99.90
23544;DHT22;11950;51.230;4.012;2023-04-23T00:40:46;10.60;99.90
23544;DHT22;11950;51.230;4.012;2023-04-23T00:43:14;10.50;99.90
23544;DHT22;11950;51.230;4.012;2023-04-23T00:45:40;10.50;99.90
23544;DHT22;11950;51.230;4.012;2023-04-23T00:48:07;10.40;99.90
23544;DHT22;11950;51.230;4.012;2023-04-23T00:50:33;10.40;99.90
23544;DHT22;11950;51.230;4.012;2023-04-23T00:53:00;10.40;99.90
23544;DHT22;11950;51.230;4.012;2023-04-23T00:55:27;10.40;99.90
23544;DHT22;11950;51.230;4.012;2023-04-23T00:57:53;10.50;99.90
23544;DHT22;11950;51.230;4.012;2023-04-23T01:00:20;10.50;99.90
23544;DHT22;11950;51.230;4.012;2023-04-23T01:02:48;10.50;99.90
23544;DHT22;11950;51.230;4.012;2023-04-23T01:05:16;10.50;99.90
23544;DHT22;11950;51.230;4.012;2023-04-23T01:07:43;10.50;99.90
23544;DHT22;11950;51.230;4.012;2023-04-23T01:10:11;10.50;99.90
23544;DHT22;11950;51.230;4.012;2023-04-23T01:12:37;10.50;99.90
23544;DHT22;11950;51.230;4.012;2023-04-23T01:15:04;10.40;99.90
23544;DHT22;11950;51.230;4.012;2023-04-23T01:17:31;10.40;99.90
23544;DHT22;11950;51.230;4.012;2023-04-23T01:19:59;10.40;99.90
23544;DHT22;11950;51.230;4.012;2023-04-23T01:22:25;10.40;99.90
23544;DHT22;11950;51.230;4.012;2023-04-23T01:24:51;10.40;99.90
23544;DHT22;11950;51.230;4.012;2023-04-23T01:27:18;10.40;99.90
23544;DHT22;11950;51.230;4.012;2023-04-23T01:29:46;10.40;99.90
23544;DHT22;11950;51.230;4.012;2023-04-23T01:32:12;10.30;99.90
23544;DHT22;11950;51.230;4.012;2023-04-23T01:34:40;10.30;99.90
23544;DHT22;11950;51.230;4.012;2023-04-23T01:37:07;10.20;99.90
23544;DHT22;11950;51.230;4.012;2023-04-23T01:39:34;10.20;99.90
23544;DHT22;11950;51.230;4.012;2023-04-23T01:42:02;10.20;99.90
23544;DHT22;11950;51.230;4.012;2023-04-23T01:44:29;10.10;99.90
23544;DHT22;11950;51.230;4.012;2023-04-23T01:46:55;10.10;99.90
23544;DHT22;11950;51.230;4.012;2023-04-23T01:49:22;10.10;99.90
23544;DHT22;11950;51.230;4.012;2023-04-23T01:51:48;10.00;99.90
23544;DHT22;11950;51.230;4.012;2023-04-23T01:54:15;10.00;99.90
23544;DHT22;11950;51.230;4.012;2023-04-23T01:56:41;10.00;99.90
23544;DHT22;11950;51.230;4.012;2023-04-23T01:59:08;10.00;99.90
23544;DHT22;11950;51.230;4.012;2023-04-23T02:01:44;9.90;99.90
23544;DHT22;11950;51.230;4.012;2023-04-23T02:04:11;9.90;99.90
23544;DHT22;11950;51.230;4.012;2023-04-23T02:06:39;9.90;99.90
23544;DHT22;11950;51.230;4.012;2023-04-23T02:09:06;9.80;99.90
23544;DHT22;11950;51.230;4.012;2023-04-23T02:11:33;9.90;99.90
23544;DHT22;11950;51.230;4.012;2023-04-23T02:14:00;9.90;99.90
23544;DHT22;11950;51.230;4.012;2023-04-23T02:16:27;9.80;99.90
23544;DHT22;11950;51.230;4.012;2023-04-23T02:18:54;9.80;99.90
23544;DHT22;11950;51.230;4.012;2023-04-23T02:21:22;9.80;99.90
23544;DHT22;11950;51.230;4.012;2023-04-23T02:23:51;9.80;99.90
23544;DHT22;11950;51.230;4.012;2023-04-23T02:26:17;9.80;99.90
23544;DHT22;11950;51.230;4.012;2023-04-23T02:28:44;9.80;99.90
23544;DHT22;11950;51.230;4.012;2023-04-23T02:31:11;9.70;99.90
23544;DHT22;11950;51.230;4.012;2023-04-23T02:33:40;9.70;99.90
23544;DHT22;11950;51.230;4.012;2023-04-23T02:36:07;9.70;99.90
23544;DHT22;11950;51.230;4.012;2023-04-23T02:38:37;9.70;99.90
23544;DHT22;11950;51.230;4.012;2023-04-23T02:41:07;9.80;99.90
23544;DHT22;11950;51.230;4.012;2023-04-23T02:43:33;9.70;99.90
23544;DHT22;11950;51.230;4.012;2023-04-23T02:45:59;9.70;99.90
23544;DHT22;11950;51.230;4.012;2023-04-23T02:48:40;9.70;99.90
23544;DHT22;11950;51.230;4.012;2023-04-23T02:51:09;9.70;99.90
23544;DHT22;11950;51.230;4.012;2023-04-23T02:53:36;9.70;99.90
23544;DHT22;11950;51.230;4.012;2023-04-23T02:56:02;9.70;99.90
23544;DHT22;11950;51.230;4.012;2023-04-23T02:58:30;9.60;99.90
23544;DHT22;11950;51.230;4.012;2023-04-23T03:01:00;9.70;99.90
23544;DHT22;11950;51.230;4.012;2023-04-23T03:03:28;9.70;99.90
23544;DHT22;11950;51.230;4.012;2023-04-23T03:05:58;9.60;99.90
23544;DHT22;11950;51.230;4.012;2023-04-23T03:08:25;9.70;99.90
23544;DHT22;11950;51.230;4.012;2023-04-23T03:10:51;9.60;99.90
23544;DHT22;11950;51.230;4.012;2023-04-23T03:13:18;9.60;99.90
23544;DHT22;11950;51.230;4.012;2023-04-23T03:15:44;9.60;99.90
23544;DHT22;11950;51.230;4.012;2023-04-23T03:18:10;9.60;99.90
23544;DHT22;11950;51.230;4.012;2023-04-23T03:20:37;9.60;99.90
23544;DHT22;11950;51.230;4.012;2023-04-23T03:23:03;9.50;99.90
23544;DHT22;11950;51.230;4.012;2023-04-23T03:25:33;9.50;99.90
23544;DHT22;11950;51.230;4.012;2023-04-23T03:27:59;9.40;99.90
23544;DHT22;11950;51.230;4.012;2023-04-23T03:30:27;9.40;99.90
23544;DHT22;11950;51.230;4.012;2023-04-23T03:32:55;9.40;99.90
23544;DHT22;11950;51.230;4.012;2023-04-23T03:35:23;9.40;99.90
23544;DHT22;11950;51.230;4.012;2023-04-23T03:37:51;9.40;99.90
23544;DHT22;11950;51.230;4.012;2023-04-23T03:40:18;9.30;99.90
23544;DHT22;11950;51.230;4.012;2023-04-23T03:42:47;9.30;99.90
23544;DHT22;11950;51.230;4.012;2023-04-23T03:45:15;9.30;99.90
23544;DHT22;11950;51.230;4.012;2023-04-23T03:47:43;9.40;99.90
23544;DHT22;11950;51.230;4.012;2023-04-23T03:50:10;9.40;99.90
23544;DHT22;11950;51.230;4.012;2023-04-23T03:52:42;9.40;99.90
23544;DHT22;11950;51.230;4.012;2023-04-23T03:55:15;9.40;99.90
23544;DHT22;11950;51.230;4.012;2023-04-23T03:57:44;9.50;99.90
23544;DHT22;11950;51.230;4.012;2023-04-23T04:00:31;9.50;99.90
23544;DHT22;11950;51.230;4.012;2023-04-23T04:02:57;9.50;99.90
23544;DHT22;11950;51.230;4.012;2023-04-23T04:05:25;9.50;99.90
23544;DHT22;11950;51.230;4.012;2023-04-23T04:07:53;9.50;99.90
23544;DHT22;11950;51.230;4.012;2023-04-23T04:10:19;9.50;99.90
23544;DHT22;11950;51.230;4.012;2023-04-23T04:12:46;9.40;99.90
23544;DHT22;11950;51.230;4.012;2023-04-23T04:15:13;9.40;99.90
23544;DHT22;11950;51.230;4.012;2023-04-23T04:17:40;9.40;99.90
23544;DHT22;11950;51.230;4.012;2023-04-23T04:20:07;9.40;99.90
23544;DHT22;11950;51.230;4.012;2023-04-23T04:22:34;9.40;99.90
23544;DHT22;11950;51.230;4.012;2023-04-23T04:25:00;9.30;99.90
23544;DHT22;11950;51.230;4.012;2023-04-23T04:27:26;9.40;99.90
23544;DHT22;11950;51.230;4.012;2023-04-23T04:29:53;9.30;99.90
23544;DHT22;11950;51.230;4.012;2023-04-23T04:32:19;9.40;99.90
23544;DHT22;11950;51.230;4.012;2023-04-23T04:34:47;9.30;99.90
23544;DHT22;11950;51.230;4.012;2023-04-23T04:37:15;9.40;99.90
23544;DHT22;11950;51.230;4.012;2023-04-23T04:39:41;9.40;99.90
23544;DHT22;11950;51.230;4.012;2023-04-23T04:42:07;9.40;99.90
23544;DHT22;11950;51.230;4.012;2023-04-23T04:44:33;9.40;99.90
23544;DHT22;11950;51.230;4.012;2023-04-23T04:47:02;9.40;99.90
23544;DHT22;11950;51.230;4.012;2023-04-23T04:49:28;9.40;99.90
23544;DHT22;11950;51.230;4.012;2023-04-23T04:51:54;9.40;99.90
23544;DHT22;11950;51.230;4.012;2023-04-23T04:54:21;9.40;99.90
23544;DHT22;11950;51.230;4.012;2023-04-23T04:56:47;9.40;99.90
23544;DHT22;11950;51.230;4.012;2023-04-23T04:59:13;9.40;99.90
23544;DHT22;11950;51.230;4.012;2023-04-23T05:01:40;9.40;99.90
23544;DHT22;11950;51.230;4.012;2023-04-23T05:04:06;9.40;99.90
23544;DHT22;11950;51.230;4.012;2023-04-23T05:06:33;9.50;99.90
23544;DHT22;11950;51.230;4.012;2023-04-23T05:08:59;9.50;99.90
23544;DHT22;11950;51.230;4.012;2023-04-23T05:11:25;9.50;99.90
23544;DHT22;11950;51.230;4.012;2023-04-23T05:13:51;9.50;99.90
23544;DHT22;11950;51.230;4.012;2023-04-23T05:16:18;9.60;99.90
23544;DHT22;11950;51.230;4.012;2023-04-23T05:18:44;9.60;99.90
23544;DHT22;11950;51.230;4.012;2023-04-23T05:21:11;9.70;99.90
23544;DHT22;11950;51.230;4.012;2023-04-23T05:23:37;9.70;99.90
23544;DHT22;11950;51.230;4.012;2023-04-23T05:26:04;9.70;99.90
23544;DHT22;11950;51.230;4.012;2023-04-23T05:28:30;9.80;99.90
23544;DHT22;11950;51.230;4.012;2023-04-23T05:30:57;9.90;99.90
23544;DHT22;11950;51.230;4.012;2023-04-23T05:33:23;10.00;99.90
23544;DHT22;11950;51.230;4.012;2023-04-23T05:35:51;10.00;99.90
23544;DHT22;11950;51.230;4.012;2023-04-23T05:38:17;10.10;99.90
23544;DHT22;11950;51.230;4.012;2023-04-23T05:40:43;10.20;99.90
23544;DHT22;11950;51.230;4.012;2023-04-23T05:43:09;10.20;99.90
23544;DHT22;11950;51.230;4.012;2023-04-23T05:45:36;10.30;99.90
23544;DHT22;11950;51.230;4.012;2023-04-23T05:48:02;10.40;99.90
23544;DHT22;11950;51.230;4.012;2023-04-23T05:50:29;10.50;99.90
23544;DHT22;11950;51.230;4.012;2023-04-23T05:52:55;10.60;99.90
23544;DHT22;11950;51.230;4.012;2023-04-23T05:55:22;10.60;99.90
23544;DHT22;11950;51.230;4.012;2023-04-23T05:57:48;10.80;99.90
23544;DHT22;11950;51.230;4.012;2023-04-23T06:00:15;10.90;99.90
23544;DHT22;11950;51.230;4.012;2023-04-23T06:02:42;11.00;99.90
23544;DHT22;11950;51.230;4.012;2023-04-23T06:05:08;11.10;99.90
23544;DHT22;11950;51.230;4.012;2023-04-23T06:07:35;11.30;99.90
23544;DHT22;11950;51.230;4.012;2023-04-23T06:10:02;11.40;99.90
23544;DHT22;11950;51.230;4.012;2023-04-23T06:12:30;11.60;99.90
23544;DHT22;11950;51.230;4.012;2023-04-23T06:14:57;11.80;99.90
23544;DHT22;11950;51.230;4.012;2023-04-23T06:17:23;11.90;99.90
23544;DHT22;11950;51.230;4.012;2023-04-23T06:19:49;12.10;99.90
23544;DHT22;11950;51.230;4.012;2023-04-23T06:22:16;12.40;99.90
23544;DHT22;11950;51.230;4.012;2023-04-23T06:24:42;12.70;99.90
23544;DHT22;11950;51.230;4.012;2023-04-23T06:27:08;13.00;99.90
23544;DHT22;11950;51.230;4.012;2023-04-23T06:29:40;13.20;99.90
23544;DHT22;11950;51.230;4.012;2023-04-23T06:32:06;13.40;99.90
23544;DHT22;11950;51.230;4.012;2023-04-23T06:34:32;13.50;99.90
23544;DHT22;11950;51.230;4.012;2023-04-23T06:36:58;13.60;99.90
23544;DHT22;11950;51.230;4.012;2023-04-23T06:39:25;13.70;99.90
23544;DHT22;11950;51.230;4.012;2023-04-23T06:41:51;13.80;99.90
23544;DHT22;11950;51.230;4.012;2023-04-23T06:44:43;13.90;99.90
23544;DHT22;11950;51.230;4.012;2023-04-23T06:47:11;14.00;99.90
23544;DHT22;11950;51.230;4.012;2023-04-23T06:49:39;14.00;99.90
23544;DHT22;11950;51.230;4.012;2023-04-23T06:52:05;14.10;99.90
23544;DHT22;11950;51.230;4.012;2023-04-23T06:54:33;14.20;99.90
23544;DHT22;11950;51.230;4.012;2023-04-23T06:56:59;14.30;99.90
23544;DHT22;11950;51.230;4.012;2023-04-23T06:59:26;14.40;99.90
23544;DHT22;11950;51.230;4.012;2023-04-23T07:01:55;14.50;99.90
23544;DHT22;11950;51.230;4.012;2023-04-23T07:04:21;14.60;99.90
23544;DHT22;11950;51.230;4.012;2023-04-23T07:06:47;14.70;99.90
23544;DHT22;11950;51.230;4.012;2023-04-23T07:09:13;14.80;99.90
23544;DHT22;11950;51.230;4.012;2023-04-23T07:11:40;14.90;99.90
23544;DHT22;11950;51.230;4.012;2023-04-23T07:14:06;14.90;99.90
23544;DHT22;11950;51.230;4.012;2023-04-23T07:16:32;14.90;99.90
23544;DHT22;11950;51.230;4.012;2023-04-23T07:19:00;14.90;99.90
23544;DHT22;11950;51.230;4.012;2023-04-23T07:21:27;15.00;99.90
23544;DHT22;11950;51.230;4.012;2023-04-23T07:23:57;15.10;99.90
23544;DHT22;11950;51.230;4.012;2023-04-23T07:26:32;15.20;99.90
23544;DHT22;11950;51.230;4.012;2023-04-23T07:28:58;15.20;99.90
23544;DHT22;11950;51.230;4.012;2023-04-23T07:31:26;15.30;99.90
23544;DHT22;11950;51.230;4.012;2023-04-23T07:33:54;15.30;99.90
23544;DHT22;11950;51.230;4.012;2023-04-23T07:36:21;15.40;99.90
23544;DHT22;11950;51.230;4.012;2023-04-23T07:38:47;15.50;99.90
23544;DHT22;11950;51.230;4.012;2023-04-23T07:41:14;15.50;99.90
23544;DHT22;11950;51.230;4.012;2023-04-23T07:43:40;15.50;99.90
23544;DHT22;11950;51.230;4.012;2023-04-23T07:46:07;15.50;99.90
23544;DHT22;11950;51.230;4.012;2023-04-23T07:48:33;15.60;99.90
23544;DHT22;11950;51.230;4.012;2023-04-23T07:51:02;15.60;99.90
23544;DHT22;11950;51.230;4.012;2023-04-23T07:53:28;15.70;99.90
23544;DHT22;11950;51.230;4.012;2023-04-23T07:55:55;15.70;99.90
23544;DHT22;11950;51.230;4.012;2023-04-23T07:58:25;15.80;99.90
23544;DHT22;11950;51.230;4.012;2023-04-23T08:00:52;15.80;99.90
23544;DHT22;11950;51.230;4.012;2023-04-23T08:03:18;15.90;99.90
23544;DHT22;11950;51.230;4.012;2023-04-23T08:05:44;16.00;99.90
23544;DHT22;11950;51.230;4.012;2023-04-23T08:08:12;16.00;99.90
23544;DHT22;11950;51.230;4.012;2023-04-23T08:10:38;16.10;99.90
23544;DHT22;11950;51.230;4.012;2023-04-23T08:13:04;16.10;99.90
23544;DHT22;11950;51.230;4.012;2023-04-23T08:15:31;16.00;99.90
23544;DHT22;11950;51.230;4.012;2023-04-23T08:17:57;16.10;99.90
23544;DHT22;11950;51.230;4.012;2023-04-23T08:20:24;16.20;99.90
23544;DHT22;11950;51.230;4.012;2023-04-23T08:22:50;16.30;99.90
23544;DHT22;11950;51.230;4.012;2023-04-23T08:25:19;16.40;99.90
23544;DHT22;11950;51.230;4.012;2023-04-23T08:27:46;16.50;99.90
23544;DHT22;11950;51.230;4.012;2023-04-23T08:30:12;16.50;99.90
23544;DHT22;11950;51.230;4.012;2023-04-23T08:32:39;16.60;99.90
23544;DHT22;11950;51.230;4.012;2023-04-23T08:35:08;16.70;99.90
23544;DHT22;11950;51.230;4.012;2023-04-23T08:37:35;16.70;99.90
23544;DHT22;11950;51.230;4.012;2023-04-23T08:40:02;16.80;99.90
23544;DHT22;11950;51.230;4.012;2023-04-23T08:42:44;16.90;99.90
23544;DHT22;11950;51.230;4.012;2023-04-23T08:45:14;16.90;99.90
23544;DHT22;11950;51.230;4.012;2023-04-23T08:47:41;17.00;99.90
23544;DHT22;11950;51.230;4.012;2023-04-23T08:50:13;17.00;99.90
23544;DHT22;11950;51.230;4.012;2023-04-23T08:52:41;17.10;99.90
23544;DHT22;11950;51.230;4.012;2023-04-23T08:55:10;17.10;99.90
23544;DHT22;11950;51.230;4.012;2023-04-23T08:57:38;17.20;99.90
23544;DHT22;11950;51.230;4.012;2023-04-23T09:00:07;17.20;99.90
23544;DHT22;11950;51.230;4.012;2023-04-23T09:02:45;17.30;99.90
23544;DHT22;11950;51.230;4.012;2023-04-23T09:05:12;17.30;99.90
23544;DHT22;11950;51.230;4.012;2023-04-23T09:07:39;17.30;99.90
23544;DHT22;11950;51.230;4.012;2023-04-23T09:10:08;17.20;99.90
23544;DHT22;11950;51.230;4.012;2023-04-23T09:12:37;17.20;99.90
23544;DHT22;11950;51.230;4.012;2023-04-23T09:15:04;17.20;99.90
23544;DHT22;11950;51.230;4.012;2023-04-23T09:17:39;17.30;99.90
23544;DHT22;11950;51.230;4.012;2023-04-23T09:20:06;17.30;99.90
23544;DHT22;11950;51.230;4.012;2023-04-23T09:22:41;17.30;99.90
23544;DHT22;11950;51.230;4.012;2023-04-23T09:25:09;17.30;99.90
23544;DHT22;11950;51.230;4.012;2023-04-23T09:27:36;17.30;99.90
23544;DHT22;11950;51.230;4.012;2023-04-23T09:30:07;17.20;99.90
23544;DHT22;11950;51.230;4.012;2023-04-23T09:32:39;17.20;99.90
23544;DHT22;11950;51.230;4.012;2023-04-23T09:35:08;17.20;99.90
23544;DHT22;11950;51.230;4.012;2023-04-23T09:37:35;17.20;99.90
23544;DHT22;11950;51.230;4.012;2023-04-23T09:40:05;17.20;99.90
23544;DHT22;11950;51.230;4.012;2023-04-23T09:42:36;17.30;99.90
23544;DHT22;11950;51.230;4.012;2023-04-23T09:45:07;17.30;99.90
23544;DHT22;11950;51.230;4.012;2023-04-23T09:47:37;17.30;99.90
23544;DHT22;11950;51.230;4.012;2023-04-23T09:50:05;17.40;99.90
23544;DHT22;11950;51.230;4.012;2023-04-23T09:52:33;17.50;99.90
23544;DHT22;11950;51.230;4.012;2023-04-23T09:55:04;17.40;99.90
23544;DHT22;11950;51.230;4.012;2023-04-23T09:57:40;17.50;99.90
23544;DHT22;11950;51.230;4.012;2023-04-23T10:00:15;17.50;99.90
23544;DHT22;11950;51.230;4.012;2023-04-23T10:02:49;17.40;99.90
23544;DHT22;11950;51.230;4.012;2023-04-23T10:05:20;17.40;99.90
23544;DHT22;11950;51.230;4.012;2023-04-23T10:07:47;17.50;99.90
23544;DHT22;11950;51.230;4.012;2023-04-23T10:10:17;17.40;99.90
23544;DHT22;11950;51.230;4.012;2023-04-23T10:12:45;17.40;99.90
23544;DHT22;11950;51.230;4.012;2023-04-23T10:15:12;17.40;99.90
23544;DHT22;11950;51.230;4.012;2023-04-23T10:17:39;17.40;99.90
23544;DHT22;11950;51.230;4.012;2023-04-23T10:20:07;17.40;99.90
23544;DHT22;11950;51.230;4.012;2023-04-23T10:22:36;17.50;99.90
23544;DHT22;11950;51.230;4.012;2023-04-23T10:25:04;17.50;99.90
23544;DHT22;11950;51.230;4.012;2023-04-23T10:27:40;17.50;99.90
23544;DHT22;11950;51.230;4.012;2023-04-23T10:30:09;17.50;99.90
23544;DHT22;11950;51.230;4.012;2023-04-23T10:32:37;17.50;99.90
23544;DHT22;11950;51.230;4.012;2023-04-23T10:35:07;17.60;99.90
23544;DHT22;11950;51.230;4.012;2023-04-23T10:37:35;17.70;99.90
23544;DHT22;11950;51.230;4.012;2023-04-23T10:40:10;17.70;99.90
23544;DHT22;11950;51.230;4.012;2023-04-23T10:42:39;17.80;99.90
23544;DHT22;11950;51.230;4.012;2023-04-23T10:45:16;17.90;99.90
23544;DHT22;11950;51.230;4.012;2023-04-23T10:47:43;17.90;99.90
23544;DHT22;11950;51.230;4.012;2023-04-23T10:50:27;17.90;99.90
23544;DHT22;11950;51.230;4.012;2023-04-23T10:52:54;17.90;99.90
23544;DHT22;11950;51.230;4.012;2023-04-23T10:55:24;17.90;99.90
23544;DHT22;11950;51.230;4.012;2023-04-23T10:58:09;17.90;99.90
23544;DHT22;11950;51.230;4.012;2023-04-23T11:03:36;18.10;99.90
23544;DHT22;11950;51.230;4.012;2023-04-23T11:06:05;18.00;99.90
23544;DHT22;11950;51.230;4.012;2023-04-23T11:08:34;17.90;99.90
23544;DHT22;11950;51.230;4.012;2023-04-23T11:11:06;17.80;99.90
23544;DHT22;11950;51.230;4.012;2023-04-23T11:13:33;17.80;99.90
23544;DHT22;11950;51.230;4.012;2023-04-23T11:16:16;17.70;99.90
23544;DHT22;11950;51.230;4.012;2023-04-23T11:18:59;17.70;99.90
23544;DHT22;11950;51.230;4.012;2023-04-23T11:21:57;17.70;99.90
23544;DHT22;11950;51.230;4.012;2023-04-23T11:24:35;17.80;99.90
23544;DHT22;11950;51.230;4.012;2023-04-23T11:27:07;17.80;99.90
23544;DHT22;11950;51.230;4.012;2023-04-23T11:29:33;17.80;99.90
23544;DHT22;11950;51.230;4.012;2023-04-23T11:32:01;17.90;99.90
23544;DHT22;11950;51.230;4.012;2023-04-23T11:34:28;17.90;99.90
23544;DHT22;11950;51.230;4.012;2023-04-23T11:36:55;17.80;99.90
23544;DHT22;11950;51.230;4.012;2023-04-23T11:39:23;17.80;99.90
23544;DHT22;11950;51.230;4.012;2023-04-23T11:41:49;17.80;99.90
23544;DHT22;11950;51.230;4.012;2023-04-23T11:44:19;17.90;99.90
23544;DHT22;11950;51.230;4.012;2023-04-23T11:46:49;17.80;99.90
23544;DHT22;11950;51.230;4.012;2023-04-23T11:49:19;17.80;99.90
23544;DHT22;11950;51.230;4.012;2023-04-23T11:51:47;17.70;99.90
23544;DHT22;11950;51.230;4.012;2023-04-23T11:54:13;17.70;99.90
23544;DHT22;11950;51.230;4.012;2023-04-23T11:56:40;17.60;99.90
23544;DHT22;11950;51.230;4.012;2023-04-23T11:59:07;17.50;99.90
23544;DHT22;11950;51.230;4.012;2023-04-23T12:01:51;17.40;99.90
23544;DHT22;11950;51.230;4.012;2023-04-23T12:04:22;17.30;99.90
23544;DHT22;11950;51.230;4.012;2023-04-23T12:06:50;17.20;99.90
23544;DHT22;11950;51.230;4.012;2023-04-23T12:09:19;17.20;99.90
23544;DHT22;11950;51.230;4.012;2023-04-23T12:11:46;17.10;99.90
23544;DHT22;11950;51.230;4.012;2023-04-23T12:14:14;17.10;99.90
23544;DHT22;11950;51.230;4.012;2023-04-23T12:16:44;17.10;99.90
23544;DHT22;11950;51.230;4.012;2023-04-23T12:19:13;17.10;99.90
23544;DHT22;11950;51.230;4.012;2023-04-23T12:24:14;17.00;99.90
23544;DHT22;11950;51.230;4.012;2023-04-23T12:26:41;16.90;99.90
23544;DHT22;11950;51.230;4.012;2023-04-23T12:29:12;16.90;99.90
23544;DHT22;11950;51.230;4.012;2023-04-23T12:31:42;16.80;99.90
23544;DHT22;11950;51.230;4.012;2023-04-23T12:34:09;16.80;99.90
23544;DHT22;11950;51.230;4.012;2023-04-23T12:36:37;16.80;99.90
23544;DHT22;11950;51.230;4.012;2023-04-23T12:39:24;16.80;99.90
23544;DHT22;11950;51.230;4.012;2023-04-23T12:41:54;16.70;99.90
23544;DHT22;11950;51.230;4.012;2023-04-23T12:44:21;16.70;99.90
23544;DHT22;11950;51.230;4.012;2023-04-23T12:46:52;16.60;99.90
23544;DHT22;11950;51.230;4.012;2023-04-23T12:49:19;16.50;99.90
23544;DHT22;11950;51.230;4.012;2023-04-23T12:51:45;16.40;99.90
23544;DHT22;11950;51.230;4.012;2023-04-23T12:54:12;16.40;99.90
23544;DHT22;11950;51.230;4.012;2023-04-23T12:56:38;16.30;99.90
23544;DHT22;11950;51.230;4.012;2023-04-23T12:59:04;16.20;99.90
23544;DHT22;11950;51.230;4.012;2023-04-23T13:01:31;16.20;99.90
23544;DHT22;11950;51.230;4.012;2023-04-23T13:03:58;16.10;99.90
23544;DHT22;11950;51.230;4.012;2023-04-23T13:06:24;16.10;99.90
23544;DHT22;11950;51.230;4.012;2023-04-23T13:08:51;16.00;99.90
23544;DHT22;11950;51.230;4.012;2023-04-23T13:11:19;16.00;99.90
23544;DHT22;11950;51.230;4.012;2023-04-23T13:13:45;15.90;99.90
23544;DHT22;11950;51.230;4.012;2023-04-23T13:16:11;15.80;99.90
23544;DHT22;11950;51.230;4.012;2023-04-23T13:18:38;15.80;99.90
23544;DHT22;11950;51.230;4.012;2023-04-23T13:21:04;15.80;99.90
23544;DHT22;11950;51.230;4.012;2023-04-23T13:23:31;15.80;99.90
23544;DHT22;11950;51.230;4.012;2023-04-23T13:25:57;15.90;99.90
23544;DHT22;11950;51.230;4.012;2023-04-23T13:28:23;16.00;99.90
23544;DHT22;11950;51.230;4.012;2023-04-23T13:30:50;16.00;99.90
23544;DHT22;11950;51.230;4.012;2023-04-23T13:33:16;16.00;99.90
23544;DHT22;11950;51.230;4.012;2023-04-23T13:35:42;16.00;99.90
23544;DHT22;11950;51.230;4.012;2023-04-23T13:38:09;16.00;99.90
23544;DHT22;11950;51.230;4.012;2023-04-23T13:40:35;15.90;99.90
23544;DHT22;11950;51.230;4.012;2023-04-23T13:43:02;15.90;99.90
23544;DHT22;11950;51.230;4.012;2023-04-23T13:45:29;15.90;99.90
23544;DHT22;11950;51.230;4.012;2023-04-23T13:47:55;15.80;99.90
23544;DHT22;11950;51.230;4.012;2023-04-23T13:50:21;15.90;99.90
23544;DHT22;11950;51.230;4.012;2023-04-23T13:52:48;15.80;99.90
23544;DHT22;11950;51.230;4.012;2023-04-23T13:55:14;15.80;99.90
23544;DHT22;11950;51.230;4.012;2023-04-23T13:57:40;15.80;99.90
23544;DHT22;11950;51.230;4.012;2023-04-23T14:00:07;15.80;99.90
23544;DHT22;11950;51.230;4.012;2023-04-23T14:02:33;15.80;99.90
23544;DHT22;11950;51.230;4.012;2023-04-23T14:05:00;15.80;99.90
23544;DHT22;11950;51.230;4.012;2023-04-23T14:07:28;15.70;99.90
23544;DHT22;11950;51.230;4.012;2023-04-23T14:09:55;15.80;99.90
23544;DHT22;11950;51.230;4.012;2023-04-23T14:12:21;15.70;99.90
23544;DHT22;11950;51.230;4.012;2023-04-23T14:14:49;15.70;99.90
23544;DHT22;11950;51.230;4.012;2023-04-23T14:17:15;15.70;99.90
23544;DHT22;11950;51.230;4.012;2023-04-23T14:19:41;15.70;99.90
23544;DHT22;11950;51.230;4.012;2023-04-23T14:22:08;15.70;99.90
23544;DHT22;11950;51.230;4.012;2023-04-23T14:24:38;15.70;99.90
23544;DHT22;11950;51.230;4.012;2023-04-23T14:27:05;15.60;99.90
23544;DHT22;11950;51.230;4.012;2023-04-23T14:29:45;15.60;99.90
23544;DHT22;11950;51.230;4.012;2023-04-23T14:32:15;15.60;99.90
23544;DHT22;11950;51.230;4.012;2023-04-23T14:34:42;15.60;99.90
23544;DHT22;11950;51.230;4.012;2023-04-23T14:37:09;15.50;99.90
23544;DHT22;11950;51.230;4.012;2023-04-23T14:39:36;15.60;99.90
23544;DHT22;11950;51.230;4.012;2023-04-23T14:42:02;15.60;99.90
23544;DHT22;11950;51.230;4.012;2023-04-23T14:44:29;15.60;99.90
23544;DHT22;11950;51.230;4.012;2023-04-23T14:46:55;15.60;99.90
23544;DHT22;11950;51.230;4.012;2023-04-23T14:49:23;15.70;99.90
23544;DHT22;11950;51.230;4.012;2023-04-23T14:51:50;15.70;99.90
23544;DHT22;11950;51.230;4.012;2023-04-23T14:54:20;15.70;99.90
23544;DHT22;11950;51.230;4.012;2023-04-23T14:56:47;15.80;99.90
23544;DHT22;11950;51.230;4.012;2023-04-23T14:59:13;15.80;99.90
23544;DHT22;11950;51.230;4.012;2023-04-23T15:01:40;15.80;99.90
23544;DHT22;11950;51.230;4.012;2023-04-23T15:04:06;15.70;99.90
23544;DHT22;11950;51.230;4.012;2023-04-23T15:06:35;15.70;99.90
23544;DHT22;11950;51.230;4.012;2023-04-23T15:09:05;15.70;99.90
23544;DHT22;11950;51.230;4.012;2023-04-23T15:11:31;15.80;99.90
23544;DHT22;11950;51.230;4.012;2023-04-23T15:14:17;15.80;99.90
23544;DHT22;11950;51.230;4.012;2023-04-23T15:16:43;15.80;99.90
23544;DHT22;11950;51.230;4.012;2023-04-23T15:19:09;15.80;99.90
23544;DHT22;11950;51.230;4.012;2023-04-23T15:21:36;15.90;99.90
23544;DHT22;11950;51.230;4.012;2023-04-23T15:24:03;15.80;99.90
23544;DHT22;11950;51.230;4.012;2023-04-23T15:26:30;15.80;99.90
23544;DHT22;11950;51.230;4.012;2023-04-23T15:28:58;15.80;99.90
23544;DHT22;11950;51.230;4.012;2023-04-23T15:31:25;15.80;99.90
23544;DHT22;11950;51.230;4.012;2023-04-23T15:33:51;15.90;99.90
23544;DHT22;11950;51.230;4.012;2023-04-23T15:36:17;15.90;99.90
23544;DHT22;11950;51.230;4.012;2023-04-23T15:38:43;15.80;99.90
23544;DHT22;11950;51.230;4.012;2023-04-23T15:41:11;15.80;99.90
23544;DHT22;11950;51.230;4.012;2023-04-23T15:43:38;15.90;99.90
23544;DHT22;11950;51.230;4.012;2023-04-23T15:46:04;15.90;99.90